Time,TemperatureF,DewpointF,PressureIn,WindDirection,WindDirectionDegrees,WindSpeedMPH,WindSpeedGustMPH,Humidity,HourlyPrecipIn,Conditions,Clouds,dailyrainin,SoftwareType,DateUTC
2013-01-11 00:06:00,41.5,27.0,29.46,SSW,202,3.2,-999.0,56,-99.99,,,0.00,Acu-Link.com,2013-01-11 07:06:00,
2013-01-11 00:21:00,41.5,27.4,29.44,ENE,67,4.2,-999.0,57,-99.99,,,0.00,Acu-Link.com,2013-01-11 07:21:00,
2013-01-11 00:37:00,41.0,26.9,29.44,West,270,1.1,-999.0,57,-99.99,,,0.00,Acu-Link.com,2013-01-11 07:37:00,
2013-01-11 00:52:00,40.8,27.6,29.45,South,180,2.7,-999.0,59,-99.99,,,0.00,Acu-Link.com,2013-01-11 07:52:00,
2013-01-11 01:07:00,41.5,28.3,29.44,ESE,112,2.2,-999.0,59,-99.99,,,0.00,Acu-Link.com,2013-01-11 08:07:00,
2013-01-11 01:23:00,42.1,28.8,29.43,East,90,2.7,-999.0,59,-99.99,,,0.00,Acu-Link.com,2013-01-11 08:23:00,
2013-01-11 01:38:00,43.0,28.8,29.42,NE,45,7.3,-999.0,57,-99.99,,,0.00,Acu-Link.com,2013-01-11 08:38:00,
2013-01-11 01:53:00,43.5,28.9,29.42,SSE,157,3.2,-999.0,56,-99.99,,,0.00,Acu-Link.com,2013-01-11 08:53:00,
2013-01-11 02:11:00,43.2,28.6,29.41,SSW,202,3.7,-999.0,56,-99.99,,,0.00,Acu-Link.com,2013-01-11 09:11:00,
2013-01-11 02:26:00,41.5,27.4,29.41,NE,45,1.7,-999.0,57,-99.99,,,0.00,Acu-Link.com,2013-01-11 09:26:00,
2013-01-11 02:41:00,40.3,26.7,29.40,ESE,112,1.7,-999.0,58,-99.99,,,0.00,Acu-Link.com,2013-01-11 09:41:00,
2013-01-11 02:57:00,39.4,26.3,29.39,ESE,112,1.1,-999.0,59,-99.99,,,0.00,Acu-Link.com,2013-01-11 09:57:00,
2013-01-11 03:12:00,38.7,26.4,29.38,South,180,1.7,-999.0,61,-99.99,,,0.00,Acu-Link.com,2013-01-11 10:12:00,
2013-01-11 03:27:00,37.8,25.6,29.38,East,90,0.0,-999.0,61,-99.99,,,0.00,Acu-Link.com,2013-01-11 10:27:00,
2013-01-11 03:43:00,37.2,25.4,29.38,ESE,112,4.7,-999.0,62,-99.99,,,0.00,Acu-Link.com,2013-01-11 10:43:00,
2013-01-11 03:58:00,38.8,25.7,29.35,South,180,4.2,-999.0,59,-99.99,,,0.00,Acu-Link.com,2013-01-11 10:58:00,
2013-01-11 04:13:00,39.9,25.5,29.35,SE,135,2.7,-999.0,56,-99.99,,,0.00,Acu-Link.com,2013-01-11 11:13:00,
2013-01-11 04:28:00,41.5,25.7,29.36,SSE,157,4.7,-999.0,53,-99.99,,,0.00,Acu-Link.com,2013-01-11 11:28:00,
2013-01-11 04:44:00,41.5,25.2,29.35,SE,135,4.2,-999.0,52,-99.99,,,0.00,Acu-Link.com,2013-01-11 11:44:00,
2013-01-11 04:59:00,41.7,25.4,29.36,NNW,337,1.1,-999.0,52,-99.99,,,0.00,Acu-Link.com,2013-01-11 11:59:00,
2013-01-11 05:14:00,41.7,25.4,29.37,WSW,247,1.7,-999.0,52,-99.99,,,0.00,Acu-Link.com,2013-01-11 12:14:00,
2013-01-11 05:29:00,40.6,24.8,29.37,SW,225,4.2,-999.0,53,-99.99,,,0.00,Acu-Link.com,2013-01-11 12:29:00,
2013-01-11 05:45:00,40.1,24.8,29.37,ESE,112,2.7,-999.0,54,-99.99,,,0.00,Acu-Link.com,2013-01-11 12:45:00,
2013-01-11 06:00:00,39.9,24.2,29.37,NNW,337,1.7,-999.0,53,-99.99,,,0.00,Acu-Link.com,2013-01-11 13:00:00,
2013-01-11 06:15:00,39.7,27.0,29.42,West,270,3.2,-999.0,60,-99.99,,,0.00,Acu-Link.com,2013-01-11 13:15:00,
2013-01-11 06:31:00,37.6,28.0,29.44,West,270,6.8,-999.0,68,-99.99,,,0.00,Acu-Link.com,2013-01-11 13:31:00,
2013-01-11 06:46:00,36.5,25.1,29.47,SW,225,5.8,-999.0,63,-99.99,,,0.00,Acu-Link.com,2013-01-11 13:46:00,
2013-01-11 07:01:00,35.4,22.9,29.47,NNE,22,3.2,-999.0,60,-99.99,,,0.00,Acu-Link.com,2013-01-11 14:01:00,
2013-01-11 07:17:00,34.5,21.7,29.49,ESE,112,4.7,-999.0,59,-99.99,,,0.00,Acu-Link.com,2013-01-11 14:17:00,
2013-01-11 07:32:00,33.8,19.4,29.51,SSW,202,5.8,-999.0,55,-99.99,,,0.00,Acu-Link.com,2013-01-11 14:32:00,
2013-01-11 07:47:00,33.3,18.5,29.53,West,270,8.3,-999.0,54,-99.99,,,0.00,Acu-Link.com,2013-01-11 14:47:00,
2013-01-11 08:02:00,32.9,17.7,29.54,West,270,4.7,-999.0,53,-99.99,,,0.00,Acu-Link.com,2013-01-11 15:02:00,
2013-01-11 08:18:00,32.7,17.5,29.55,East,90,7.8,-999.0,53,-99.99,,,0.00,Acu-Link.com,2013-01-11 15:18:00,
2013-01-11 08:33:00,32.7,17.5,29.57,WSW,247,1.1,-999.0,53,-99.99,,,0.00,Acu-Link.com,2013-01-11 15:33:00,
2013-01-11 08:48:00,32.9,17.2,29.58,SSW,202,5.3,-999.0,52,-99.99,,,0.00,Acu-Link.com,2013-01-11 15:48:00,
2013-01-11 09:04:00,32.9,15.4,29.58,West,270,6.3,-999.0,48,-99.99,,,0.00,Acu-Link.com,2013-01-11 16:04:00,
2013-01-11 09:19:00,33.6,15.1,29.58,SSE,157,4.7,-999.0,46,-99.99,,,0.00,Acu-Link.com,2013-01-11 16:19:00,
2013-01-11 09:34:00,33.4,12.8,29.60,NNW,337,3.7,-999.0,42,-99.99,,,0.00,Acu-Link.com,2013-01-11 16:34:00,
2013-01-11 09:50:00,35.1,12.1,29.59,NNW,337,5.3,-999.0,38,-99.99,,,0.00,Acu-Link.com,2013-01-11 16:50:00,
2013-01-11 10:05:00,38.3,10.3,29.59,SSE,157,4.2,-999.0,31,-99.99,,,0.00,Acu-Link.com,2013-01-11 17:05:00,
2013-01-11 10:20:00,39.4,9.0,29.58,ESE,112,6.8,-999.0,28,-99.99,,,0.00,Acu-Link.com,2013-01-11 17:20:00,
2013-01-11 10:36:00,38.7,4.1,29.57,West,270,8.3,-999.0,23,-99.99,,,0.00,Acu-Link.com,2013-01-11 17:36:00,
2013-01-11 10:51:00,38.3,3.8,29.57,West,270,4.7,-999.0,23,-99.99,,,0.00,Acu-Link.com,2013-01-11 17:51:00,
2013-01-11 11:06:00,39.7,5.9,29.56,WNW,292,6.3,-999.0,24,-99.99,,,0.00,Acu-Link.com,2013-01-11 18:06:00,
2013-01-11 11:22:00,39.2,5.5,29.55,WNW,292,8.3,-999.0,24,-99.99,,,0.00,Acu-Link.com,2013-01-11 18:22:00,
2013-01-11 11:37:00,39.2,8.1,29.55,West,270,6.3,-999.0,27,-99.99,,,0.00,Acu-Link.com,2013-01-11 18:37:00,
2013-01-11 11:53:00,39.4,6.5,29.55,WSW,247,7.3,-999.0,25,-99.99,,,0.00,Acu-Link.com,2013-01-11 18:53:00,
2013-01-11 12:08:00,39.0,7.9,29.54,ESE,112,2.2,-999.0,27,-99.99,,,0.00,Acu-Link.com,2013-01-11 19:08:00,
2013-01-11 12:23:00,37.9,9.3,29.53,WNW,292,4.7,-999.0,30,-99.99,,,0.00,Acu-Link.com,2013-01-11 19:23:00,
2013-01-11 12:38:00,37.9,8.5,29.53,NNE,22,2.7,-999.0,29,-99.99,,,0.00,Acu-Link.com,2013-01-11 19:38:00,
2013-01-11 12:54:00,35.8,7.4,29.53,SSW,202,3.7,-999.0,30,-99.99,,,0.00,Acu-Link.com,2013-01-11 19:54:00,
2013-01-11 13:09:00,37.6,8.3,29.52,ESE,112,6.8,-999.0,29,-99.99,,,0.00,Acu-Link.com,2013-01-11 20:09:00,
2013-01-11 13:24:00,38.3,8.9,29.52,NNW,337,3.7,-999.0,29,-99.99,,,0.00,Acu-Link.com,2013-01-11 20:24:00,
2013-01-11 13:40:00,38.8,5.1,29.53,West,270,6.8,-999.0,24,-99.99,,,0.00,Acu-Link.com,2013-01-11 20:40:00,
2013-01-11 13:55:00,38.3,3.8,29.52,SW,225,7.3,-999.0,23,-99.99,,,0.00,Acu-Link.com,2013-01-11 20:55:00,
2013-01-11 14:10:00,38.3,8.1,29.54,WSW,247,5.8,-999.0,28,-99.99,,,0.00,Acu-Link.com,2013-01-11 21:10:00,
2013-01-11 14:26:00,37.9,8.5,29.53,NE,45,5.3,-999.0,29,-99.99,,,0.00,Acu-Link.com,2013-01-11 21:26:00,
2013-01-11 14:41:00,37.0,5.3,29.54,ESE,112,2.2,-999.0,26,-99.99,,,0.00,Acu-Link.com,2013-01-11 21:41:00,
2013-01-11 14:56:00,37.9,3.5,29.54,West,270,7.8,-999.0,23,-99.99,,,0.00,Acu-Link.com,2013-01-11 21:56:00,
2013-01-11 15:12:00,37.0,1.7,29.55,SW,225,8.9,-999.0,22,-99.99,,,0.00,Acu-Link.com,2013-01-11 22:12:00,
2013-01-11 15:27:00,36.7,1.5,29.54,SSW,202,10.4,-999.0,22,-99.99,,,0.00,Acu-Link.com,2013-01-11 22:27:00,
2013-01-11 15:42:00,36.5,0.3,29.54,East,90,4.2,-999.0,21,-99.99,,,0.00,Acu-Link.com,2013-01-11 22:42:00,
2013-01-11 15:58:00,35.8,-1.3,29.55,West,270,3.2,-999.0,20,-99.99,,,0.00,Acu-Link.com,2013-01-11 22:58:00,
2013-01-11 16:13:00,35.6,1.5,29.55,NNE,22,2.2,-999.0,23,-99.99,,,0.00,Acu-Link.com,2013-01-11 23:13:00,
2013-01-11 16:28:00,34.0,-1.8,29.56,West,270,4.2,-999.0,21,-99.99,,,0.00,Acu-Link.com,2013-01-11 23:28:00,
2013-01-11 16:43:00,33.1,-1.6,29.59,SSE,157,2.2,-999.0,22,-99.99,,,0.00,Acu-Link.com,2013-01-11 23:43:00,
2013-01-11 16:58:00,32.2,-1.4,29.58,East,90,1.7,-999.0,23,-99.99,,,0.00,Acu-Link.com,2013-01-11 23:58:00,
2013-01-11 17:14:00,30.7,-2.7,29.60,West,270,3.2,-999.0,23,-99.99,,,0.00,Acu-Link.com,2013-01-12 00:14:00,
2013-01-11 17:29:00,29.8,-4.3,29.60,East,90,2.7,-999.0,22,-99.99,,,0.00,Acu-Link.com,2013-01-12 00:29:00,
2013-01-11 17:44:00,28.8,-5.2,29.62,West,270,1.7,-999.0,22,-99.99,,,0.00,Acu-Link.com,2013-01-12 00:44:00,
2013-01-11 18:00:00,27.9,-5.0,29.62,NW,315,0.0,-999.0,23,-99.99,,,0.00,Acu-Link.com,2013-01-12 01:00:00,
2013-01-11 18:15:00,26.8,-5.1,29.61,SSW,202,0.0,-999.0,24,-99.99,,,0.00,Acu-Link.com,2013-01-12 01:15:00,
2013-01-11 18:30:00,26.1,-3.3,29.62,ESE,112,1.1,-999.0,27,-99.99,,,0.00,Acu-Link.com,2013-01-12 01:30:00,
2013-01-11 18:46:00,25.5,-3.0,29.62,West,270,0.0,-999.0,28,-99.99,,,0.00,Acu-Link.com,2013-01-12 01:46:00,
2013-01-11 19:01:00,25.2,-2.5,29.63,NNE,22,1.1,-999.0,29,-99.99,,,0.00,Acu-Link.com,2013-01-12 02:01:00,
2013-01-11 19:16:00,25.3,-2.5,29.64,East,90,0.0,-999.0,29,-99.99,,,0.00,Acu-Link.com,2013-01-12 02:16:00,
2013-01-11 19:32:00,24.8,-2.2,29.63,West,270,0.0,-999.0,30,-99.99,,,0.00,Acu-Link.com,2013-01-12 02:32:00,
2013-01-11 19:47:00,24.4,-1.8,29.64,East,90,0.0,-999.0,31,-99.99,,,0.00,Acu-Link.com,2013-01-12 02:47:00,
2013-01-11 20:02:00,23.2,-2.2,29.67,SSE,157,0.0,-999.0,32,-99.99,,,0.00,Acu-Link.com,2013-01-12 03:02:00,
2013-01-11 20:18:00,23.0,-1.1,29.64,SW,225,0.0,-999.0,34,-99.99,,,0.00,Acu-Link.com,2013-01-12 03:18:00,
2013-01-11 20:33:00,23.2,-1.6,29.66,ESE,112,0.0,-999.0,33,-99.99,,,0.00,Acu-Link.com,2013-01-12 03:33:00,
2013-01-11 20:48:00,23.2,-1.6,29.66,NNE,22,1.7,-999.0,33,-99.99,,,0.00,Acu-Link.com,2013-01-12 03:48:00,
2013-01-11 21:03:00,23.9,-0.3,29.63,South,180,0.0,-999.0,34,-99.99,,,0.00,Acu-Link.com,2013-01-12 04:03:00,
2013-01-11 21:19:00,23.5,-0.7,29.65,SSE,157,0.0,-999.0,34,-99.99,,,0.00,Acu-Link.com,2013-01-12 04:19:00,
2013-01-11 21:34:00,22.3,-1.1,29.63,NNE,22,1.1,-999.0,35,-99.99,,,0.00,Acu-Link.com,2013-01-12 04:34:00,
2013-01-11 21:49:00,23.0,-1.1,29.64,East,90,1.7,-999.0,34,-99.99,,,0.00,Acu-Link.com,2013-01-12 04:49:00,
2013-01-11 22:05:00,22.8,-1.3,29.63,NE,45,1.1,-999.0,34,-99.99,,,0.00,Acu-Link.com,2013-01-12 05:05:00,
2013-01-11 22:20:00,22.8,-0.7,29.64,SE,135,2.7,-999.0,35,-99.99,,,0.00,Acu-Link.com,2013-01-12 05:20:00,
2013-01-11 22:35:00,23.0,-0.5,29.64,SSE,157,1.1,-999.0,35,-99.99,,,0.00,Acu-Link.com,2013-01-12 05:35:00,
2013-01-11 22:51:00,22.6,-0.9,29.64,East,90,0.0,-999.0,35,-99.99,,,0.00,Acu-Link.com,2013-01-12 05:51:00,
2013-01-11 23:06:00,21.9,-1.5,29.64,SSE,157,0.0,-999.0,35,-99.99,,,0.00,Acu-Link.com,2013-01-12 06:06:00,
2013-01-11 23:21:00,20.3,-1.2,29.64,South,180,0.0,-999.0,38,-99.99,,,0.00,Acu-Link.com,2013-01-12 06:21:00,
2013-01-11 23:37:00,18.9,-1.9,29.65,South,180,0.0,-999.0,39,-99.99,,,0.00,Acu-Link.com,2013-01-12 06:37:00,
2013-01-11 23:52:00,18.3,-1.9,29.64,East,90,0.0,-999.0,40,-99.99,,,0.00,Acu-Link.com,2013-01-12 06:52:00,